OH98 weather

CLOSED Lyttle Airport
New Albany, Ohio, United States

Public forecast

Using degrees Fahrenheit for public forecast. Weather courtesy of forecast.io.

Closest aviation weather report (METAR) to Lyttle Airport

Closest report is John Glenn Columbus International Airport, 5.7 nm (10.5 km) WSW. Retrieved 2020/06/05 11:51 UTC (15 minutes ago):

KCMH 051151Z 00000KT 6SM BR OVC007 21/20 A2987 RMK AO2 SLP110 70073 T02110200 10211 20200 52001

Closest aviation forecast (TAF) to Lyttle Airport

Closest forecast is John Glenn Columbus International Airport, 5.7 nm (10.5 km) WSW. Retrieved 2020/06/05 12:39 UTC (0 seconds ago):

TAF KCMH 051135Z 0512/0612 21004KT P6SM OVC005 FM051400 23004KT P6SM BKN008 FM051500 26004KT P6SM SCT020 FM051900 29005KT P6SM FEW250 FM060100 21005KT P6SM FEW250 FM061000 29004KT P6SM SCT050